Pitt, Minnesota
Current Conditions -  °F | °C
As of 9:53 PM on Thursday 27 Nov 2014 (Local Time) from KBDE Reporting Station
Broken Clouds Broken Clouds  
Wind Chill:   Ceiling: 12000
Heat Index:   Visibility: 10mi
Dew Point: -5°   Wind: 3mph
Humidity: 72%   Direction: 140°SE
Pressure: 30.17"   Gusts: NA
Location:  48.5595°N, 94.661°W
Report Text: KBDE 280353Z AUTO 14003KT 10SM BKN120 M17/M21 A3017 RMK AO2 SLP253 T11671206 TSNO
Loading
Personal Weather Stations






























Interactive Weather Map New forecast layout! Learn more

10-Day Weather Forecast

Advertisements
Track Severe Weather on mobile